Time;durP1;ratioP1;P1;durP2;ratioP2;P2;SDS_P1;SDS_P2;PMS_P1;PMS_P2;Temp;Humidity;BMP_temperature;BMP_pressure;BME280_temperature;BME280_humidity;BME280_pressure;Samples;Min_cycle;Max_cycle;Signal;HPM_P1;HPM_P2
2022/07/02 00:02:20;;;;;;;;;;;;;;;12.03;55.88;99830.66;4733270;30;19951;-86
2022/07/02 00:04:47;;;;;;;;;;;;;;;12.02;56.01;99831.72;4727154;30;19981;-85
2022/07/02 00:07:17;;;;;;;;;;;;;;;12.05;55.75;99831.25;4720905;30;19931;-84
2022/07/02 00:09:44;;;;;;;;;;;;;;;12.04;56.06;99833.13;4725478;30;20004;-86
2022/07/02 00:12:11;;;;;;;;;;;;;;;12.14;55.85;99837.97;4716203;30;19934;-85
2022/07/02 00:14:38;;;;;;;;;;;;;;;12.07;55.93;99832.66;4714564;30;20366;-86
2022/07/02 00:17:07;;;;;;;;;;;;;;;12.09;56.00;99829.72;4721708;30;19998;-87
2022/07/02 00:19:35;;;;;;;;;;;;;;;12.09;56.07;99824.31;4714870;30;20398;-86
2022/07/02 00:22:02;;;;;;;;;;;;;;;12.04;56.14;99826.91;4723236;30;20398;-84
2022/07/02 00:24:32;;;;;;;;;;;;;;;11.97;56.07;99840.53;4730517;30;20060;-87
2022/07/02 00:26:59;;;;;;;;;;;;;;;12.00;55.96;99837.38;4709531;30;20434;-88
2022/07/02 00:29:32;;;;;;;;;;;;;;;11.96;56.02;99835.38;4724203;30;20025;-87
2022/07/02 00:31:59;;;;;;;;;;;;;;;11.90;56.05;99839.78;4732061;30;19931;-89
2022/07/02 00:34:32;;;;;;;;;;;;;;;11.84;56.64;99846.13;4740991;30;19931;-85
2022/07/02 00:36:59;;;;;;;;;;;;;;;11.87;56.57;99838.38;4722493;30;19934;-84
2022/07/02 00:39:29;;;;;;;;;;;;;;;11.91;56.62;99841.47;4729463;30;20045;-84
2022/07/02 00:41:59;;;;;;;;;;;;;;;11.86;56.50;99836.75;4732525;30;19939;-86
2022/07/02 00:44:26;;;;;;;;;;;;;;;11.78;56.46;99839.75;4721429;30;19930;-86
2022/07/02 00:46:53;;;;;;;;;;;;;;;11.74;56.87;99838.56;4731471;30;19937;-86
2022/07/02 00:49:23;;;;;;;;;;;;;;;11.69;56.77;99855.47;4734065;30;19930;-89
2022/07/02 00:51:51;;;;;;;;;;;;;;;11.70;56.95;99857.16;4721028;30;20176;-87
2022/07/02 00:54:18;;;;;;;;;;;;;;;11.70;57.17;99851.75;4733597;30;19930;-87
2022/07/02 00:56:45;;;;;;;;;;;;;;;11.76;57.75;99858.09;4734827;30;19978;-87
2022/07/02 00:59:13;;;;;;;;;;;;;;;11.83;58.21;99860.72;4734182;30;19937;-88
2022/07/02 01:01:40;;;;;;;;;;;;;;;11.87;57.84;99856.50;4733056;30;20190;-87
2022/07/02 01:04:07;;;;;;;;;;;;;;;11.82;57.58;99854.44;4734050;30;20301;-87
2022/07/02 01:06:34;;;;;;;;;;;;;;;11.78;57.64;99860.59;4733104;30;19931;-88
2022/07/02 01:11:47;;;;;;;;;;;;;;;11.83;57.40;99858.81;4732815;30;19941;-87
2022/07/02 01:14:39;;;;;;;;;;;;;;;11.80;57.50;99863.84;4714455;30;19950;-86
2022/07/02 01:17:07;;;;;;;;;;;;;;;11.82;57.42;99862.56;4714672;30;20291;-86
2022/07/02 01:19:34;;;;;;;;;;;;;;;11.84;57.36;99854.22;4715620;30;19991;-89
2022/07/02 01:22:15;;;;;;;;;;;;;;;11.82;57.51;99853.63;4721216;30;19937;-88
2022/07/02 01:24:43;;;;;;;;;;;;;;;11.76;57.42;99863.50;4732265;30;20318;-88
2022/07/02 01:27:20;;;;;;;;;;;;;;;11.78;57.39;99863.28;4717655;30;20069;-87
2022/07/02 01:29:48;;;;;;;;;;;;;;;11.80;57.77;99858.44;4731650;30;20357;-85
2022/07/02 01:32:16;;;;;;;;;;;;;;;11.84;57.75;99865.06;4732007;30;20307;-86
2022/07/02 01:34:45;;;;;;;;;;;;;;;11.78;58.10;99868.69;4735386;30;19931;-86
2022/07/02 01:37:22;;;;;;;;;;;;;;;11.71;57.99;99866.91;4718933;30;19930;-85
2022/07/02 01:39:49;;;;;;;;;;;;;;;11.70;58.20;99870.66;4732348;30;20028;-86
2022/07/02 01:42:17;;;;;;;;;;;;;;;11.69;58.30;99874.41;4725044;30;19937;-84
2022/07/02 01:44:44;;;;;;;;;;;;;;;11.76;57.97;99873.50;4733062;30;19931;-85
2022/07/02 01:47:12;;;;;;;;;;;;;;;11.76;57.97;99878.91;4735610;30;19930;-86
2022/07/02 01:49:39;;;;;;;;;;;;;;;11.74;58.10;99886.44;4732041;30;19931;-85
2022/07/02 01:52:06;;;;;;;;;;;;;;;11.73;58.66;99890.19;4739071;30;19981;-86
2022/07/02 01:54:33;;;;;;;;;;;;;;;11.74;58.77;99889.13;4726735;30;19973;-87
2022/07/02 01:57:03;;;;;;;;;;;;;;;11.74;58.89;99886.44;4732016;30;19930;-87
2022/07/02 01:59:30;;;;;;;;;;;;;;;11.77;59.01;99889.47;4735360;30;19938;-85
2022/07/02 02:01:57;;;;;;;;;;;;;;;11.79;59.13;99895.50;4735823;30;20410;-88
2022/07/02 02:04:25;;;;;;;;;;;;;;;11.79;59.23;99894.66;4735123;30;20466;-85
2022/07/02 02:06:52;;;;;;;;;;;;;;;11.82;59.18;99900.44;4735661;30;20307;-86
2022/07/02 02:09:19;;;;;;;;;;;;;;;11.92;59.33;99894.50;4734616;30;19940;-86
2022/07/02 02:11:47;;;;;;;;;;;;;;;11.99;59.01;99906.03;4734659;30;20029;-85
2022/07/02 02:14:14;;;;;;;;;;;;;;;12.06;58.79;99908.66;4719796;30;19962;-86
2022/07/02 02:16:40;;;;;;;;;;;;;;;12.08;58.61;99909.25;4735421;30;19931;-89
2022/07/02 02:19:08;;;;;;;;;;;;;;;12.12;58.84;99911.25;4735544;30;19930;-87
2022/07/02 02:21:35;;;;;;;;;;;;;;;12.23;58.52;99908.78;4735319;30;19930;-85
2022/07/02 02:24:02;;;;;;;;;;;;;;;12.27;58.53;99902.69;4734605;30;20034;-88
2022/07/02 02:26:29;;;;;;;;;;;;;;;12.19;58.85;99894.91;4734430;30;19934;-86
2022/07/02 02:28:56;;;;;;;;;;;;;;;12.22;58.80;99899.84;4734542;30;20033;-86
2022/07/02 02:31:23;;;;;;;;;;;;;;;12.33;58.66;99896.34;4734674;30;19934;-84
2022/07/02 02:33:50;;;;;;;;;;;;;;;12.49;58.28;99894.00;4732870;30;20451;-87
2022/07/02 02:36:17;;;;;;;;;;;;;;;12.57;58.24;99896.34;4733744;30;20476;-85
2022/07/02 02:38:46;;;;;;;;;;;;;;;12.57;58.62;99899.88;4734928;30;20445;-84
2022/07/02 02:41:13;;;;;;;;;;;;;;;12.62;58.40;99904.59;4734294;30;19931;-85
2022/07/02 02:43:40;;;;;;;;;;;;;;;12.60;58.71;99905.88;4733368;30;19980;-87
2022/07/02 02:46:08;;;;;;;;;;;;;;;12.67;58.61;99901.19;4734881;30;19930;-86
2022/07/02 02:48:35;;;;;;;;;;;;;;;12.75;58.18;99906.22;4733432;30;19937;-85
2022/07/02 02:51:03;;;;;;;;;;;;;;;12.86;58.12;99910.78;4733034;30;19988;-86
2022/07/02 02:53:31;;;;;;;;;;;;;;;12.93;58.09;99916.09;4734482;30;19982;-84
2022/07/02 02:55:58;;;;;;;;;;;;;;;12.93;58.49;99903.38;4734643;30;19930;-85
2022/07/02 02:58:29;;;;;;;;;;;;;;;12.99;58.75;99902.44;4733828;30;19937;-87
2022/07/02 03:00:59;;;;;;;;;;;;;;;13.10;58.93;99902.66;4734067;30;19930;-86
2022/07/02 03:03:26;;;;;;;;;;;;;;;13.17;58.49;99901.44;4734178;30;20355;-85
2022/07/02 03:05:53;;;;;;;;;;;;;;;13.32;58.23;99898.25;4734279;30;20385;-85
2022/07/02 03:08:23;;;;;;;;;;;;;;;13.48;58.09;99895.84;4742986;30;19930;-85
2022/07/02 03:10:50;;;;;;;;;;;;;;;13.55;57.78;99891.91;4749264;30;19931;-84
2022/07/02 03:13:20;;;;;;;;;;;;;;;13.77;56.99;99893.94;4747696;30;19956;-84
2022/07/02 03:15:55;;;;;;;;;;;;;;;13.96;56.48;99897.25;4745119;30;19929;-87
2022/07/02 03:18:23;;;;;;;;;;;;;;;14.08;56.12;99898.03;4730190;30;19992;-86
2022/07/02 03:20:53;;;;;;;;;;;;;;;14.26;54.53;99903.19;4751014;30;19995;-86
2022/07/02 03:23:20;;;;;;;;;;;;;;;14.40;53.50;99900.97;4731504;30;20006;-88
2022/07/02 03:25:50;;;;;;;;;;;;;;;14.55;53.46;99899.59;4748303;30;19930;-85
2022/07/02 03:28:17;;;;;;;;;;;;;;;14.72;52.64;99908.53;4721724;30;20325;-85
2022/07/02 03:30:44;;;;;;;;;;;;;;;14.92;52.45;99905.28;4750881;30;20287;-86
2022/07/02 03:33:11;;;;;;;;;;;;;;;15.04;52.21;99903.28;4732858;30;19938;-86
2022/07/02 03:35:40;;;;;;;;;;;;;;;15.17;51.80;99907.53;4734038;30;19937;-87
2022/07/02 03:38:07;;;;;;;;;;;;;;;15.33;50.46;99912.06;4732141;30;20023;-87
2022/07/02 03:40:34;;;;;;;;;;;;;;;15.46;49.67;99907.31;4731931;30;19930;-87
2022/07/02 03:43:27;;;;;;;;;;;;;;;15.57;49.07;99912.63;4735382;30;19930;-87
2022/07/02 03:45:54;;;;;;;;;;;;;;;15.72;48.34;99909.28;4737334;30;19962;-86
2022/07/02 03:48:21;;;;;;;;;;;;;;;15.86;47.82;99914.31;4737697;30;19977;-85
2022/07/02 03:50:52;;;;;;;;;;;;;;;15.98;47.72;99915.78;4739460;30;19937;-87
2022/07/02 03:53:22;;;;;;;;;;;;;;;16.11;47.41;99914.53;4736848;30;19972;-86
2022/07/02 03:55:49;;;;;;;;;;;;;;;16.19;46.54;99919.50;4731870;30;20075;-85
2022/07/02 03:58:16;;;;;;;;;;;;;;;16.26;46.04;99919.31;4733984;30;20375;-86
2022/07/02 04:00:43;;;;;;;;;;;;;;;16.33;45.52;99919.91;4721027;30;19931;-89
2022/07/02 04:03:10;;;;;;;;;;;;;;;16.40;45.47;99919.69;4702280;30;19931;-91
2022/07/02 04:05:37;;;;;;;;;;;;;;;16.51;45.23;99921.41;4701469;30;19934;-90
2022/07/02 04:08:04;;;;;;;;;;;;;;;16.56;44.87;99918.72;4717531;30;19931;-87
2022/07/02 04:10:31;;;;;;;;;;;;;;;16.67;44.60;99922.34;4715843;30;20020;-91
2022/07/02 04:12:58;;;;;;;;;;;;;;;16.73;44.51;99929.44;4716799;30;19977;-87
2022/07/02 04:15:25;;;;;;;;;;;;;;;16.85;44.43;99927.38;4717088;30;19930;-87
2022/07/02 04:17:52;;;;;;;;;;;;;;;16.97;44.18;99923.63;4715361;30;20353;-88
2022/07/02 04:20:19;;;;;;;;;;;;;;;16.97;42.89;99920.91;4715771;30;19955;-85
2022/07/02 04:22:46;;;;;;;;;;;;;;;16.95;42.92;99906.72;4715693;30;19974;-87
2022/07/02 04:25:13;;;;;;;;;;;;;;;17.00;42.88;99912.19;4717254;30;19931;-88
2022/07/02 04:27:40;;;;;;;;;;;;;;;17.01;42.29;99913.81;4717534;30;19931;-88
2022/07/02 04:30:09;;;;;;;;;;;;;;;17.07;41.92;99920.97;4715836;30;19937;-88
2022/07/02 04:32:36;;;;;;;;;;;;;;;17.16;42.15;99919.34;4715394;30;19985;-88
2022/07/02 04:35:03;;;;;;;;;;;;;;;17.24;41.68;99913.41;4716568;30;19970;-87
2022/07/02 04:37:35;;;;;;;;;;;;;;;17.24;41.40;99907.97;4717191;30;20119;-87
2022/07/02 04:40:03;;;;;;;;;;;;;;;17.29;41.49;99909.88;4715367;30;19946;-88
2022/07/02 04:42:30;;;;;;;;;;;;;;;17.38;41.28;99911.00;4723194;30;19965;-85
2022/07/02 04:44:57;;;;;;;;;;;;;;;17.52;41.49;99905.84;4717550;30;19961;-87
2022/07/02 04:47:32;;;;;;;;;;;;;;;17.75;41.75;99908.13;4712156;30;19935;-86
2022/07/02 04:49:59;;;;;;;;;;;;;;;17.89;41.45;99913.88;4716012;30;20025;-86
2022/07/02 04:52:26;;;;;;;;;;;;;;;17.98;41.11;99909.53;4715010;30;19937;-86
2022/07/02 04:54:53;;;;;;;;;;;;;;;17.86;39.98;99913.63;4704294;30;19930;-88
2022/07/02 04:57:20;;;;;;;;;;;;;;;17.69;40.00;99903.72;4727986;30;19935;-85
2022/07/02 04:59:47;;;;;;;;;;;;;;;17.71;40.11;99908.91;4731740;30;19934;-88
2022/07/02 05:02:16;;;;;;;;;;;;;;;17.71;39.31;99908.91;4733097;30;19935;-88
2022/07/02 05:04:43;;;;;;;;;;;;;;;17.71;39.50;99906.19;4733215;30;19931;-87
2022/07/02 05:07:11;;;;;;;;;;;;;;;17.74;39.20;99909.19;4733584;30;20365;-87
2022/07/02 05:09:38;;;;;;;;;;;;;;;17.82;39.49;99907.88;4736652;30;19930;-87
2022/07/02 05:12:08;;;;;;;;;;;;;;;17.92;39.13;99904.34;4737099;30;19931;-88
2022/07/02 05:14:35;;;;;;;;;;;;;;;18.08;38.77;99903.28;4736731;30;19930;-88
2022/07/02 05:17:03;;;;;;;;;;;;;;;18.04;38.65;99902.16;4735490;30;19980;-87
2022/07/02 05:19:30;;;;;;;;;;;;;;;18.15;38.85;99908.44;4735899;30;19984;-87
2022/07/02 05:21:57;;;;;;;;;;;;;;;18.12;38.48;99898.88;4749962;30;20383;-87
2022/07/02 05:24:29;;;;;;;;;;;;;;;18.14;38.42;99909.56;4721011;30;19957;-87
2022/07/02 05:26:59;;;;;;;;;;;;;;;18.13;38.17;99903.28;4750259;30;19934;-88
2022/07/02 05:29:29;;;;;;;;;;;;;;;18.14;38.12;99910.38;4736941;30;19931;-87
2022/07/02 05:31:56;;;;;;;;;;;;;;;18.24;38.10;99904.09;4737343;30;19934;-86
2022/07/02 05:34:23;;;;;;;;;;;;;;;18.35;37.99;99893.97;4737231;30;19931;-85
2022/07/02 05:36:50;;;;;;;;;;;;;;;18.38;37.44;99897.00;4742861;30;20062;-87
2022/07/02 05:39:17;;;;;;;;;;;;;;;18.49;37.72;99892.31;4737160;30;19930;-86
2022/07/02 05:41:47;;;;;;;;;;;;;;;18.55;37.69;99882.19;4736603;30;19930;-87
2022/07/02 05:44:15;;;;;;;;;;;;;;;18.61;37.25;99892.84;4738679;30;19935;-87
2022/07/02 05:46:42;;;;;;;;;;;;;;;18.57;37.18;99889.03;4736734;30;19934;-87
2022/07/02 05:49:11;;;;;;;;;;;;;;;18.67;37.19;99884.66;4737931;30;20295;-86
2022/07/02 05:51:38;;;;;;;;;;;;;;;18.61;37.32;99881.91;4735974;30;19979;-86
2022/07/02 05:54:06;;;;;;;;;;;;;;;18.76;37.43;99888.47;4737737;30;19930;-86
2022/07/02 05:56:36;;;;;;;;;;;;;;;19.01;37.33;99874.72;4731768;30;20793;-86
2022/07/02 05:59:03;;;;;;;;;;;;;;;19.14;36.56;99889.75;4729797;30;19958;-86
2022/07/02 06:01:34;;;;;;;;;;;;;;;19.04;36.30;99871.44;4729535;30;19930;-87
2022/07/02 06:04:03;;;;;;;;;;;;;;;19.14;36.09;99884.28;4728286;30;19938;-85
2022/07/02 06:09:16;;;;;;;;;;;;;;;19.66;36.23;99879.34;4730094;30;19935;-88
2022/07/02 06:11:43;;;;;;;;;;;;;;;19.84;35.61;99875.13;4742686;30;19930;-86
2022/07/02 06:14:14;;;;;;;;;;;;;;;19.87;35.72;99872.63;4726661;30;20018;-87
2022/07/02 06:16:41;;;;;;;;;;;;;;;19.99;34.67;99866.00;4724648;30;19938;-85
2022/07/02 06:19:14;;;;;;;;;;;;;;;20.13;33.24;99869.72;4724528;30;19930;-88
2022/07/02 06:21:41;;;;;;;;;;;;;;;20.19;33.47;99868.56;4730149;30;20417;-88
2022/07/02 06:24:09;;;;;;;;;;;;;;;20.13;32.75;99864.25;4731367;30;19984;-85
2022/07/02 06:26:36;;;;;;;;;;;;;;;20.01;32.73;99852.84;4728350;30;19964;-88
2022/07/02 06:29:10;;;;;;;;;;;;;;;20.14;33.23;99860.38;4721838;30;19938;-88
2022/07/02 06:31:38;;;;;;;;;;;;;;;20.24;33.67;99857.56;4716802;30;19938;-87
2022/07/02 06:34:05;;;;;;;;;;;;;;;20.35;33.99;99859.09;4700233;30;20668;-86
2022/07/02 06:36:32;;;;;;;;;;;;;;;20.45;34.19;99857.38;4714289;30;20011;-90
2022/07/02 06:38:59;;;;;;;;;;;;;;;20.60;33.80;99856.44;4707829;30;20414;-88
2022/07/02 06:44:22;;;;;;;;;;;;;;;20.78;33.84;99861.16;4731895;30;20045;-87
2022/07/02 06:47:05;;;;;;;;;;;;;;;20.70;32.94;99854.38;4705238;30;19961;-88
2022/07/02 06:49:37;;;;;;;;;;;;;;;20.36;33.36;99859.94;4702998;30;19931;-88
2022/07/02 06:52:16;;;;;;;;;;;;;;;20.25;33.61;99853.69;4726221;30;19974;-87
2022/07/02 06:55:04;;;;;;;;;;;;;;;20.08;32.97;99865.09;4717577;30;19930;-93
2022/07/02 06:57:31;;;;;;;;;;;;;;;20.14;33.25;99855.72;4731254;30;20365;-89
2022/07/02 07:03:44;;;;;;;;;;;;;;;20.42;33.35;99853.28;4713300;30;19937;-88
2022/07/02 07:06:34;;;;;;;;;;;;;;;20.81;33.26;99852.34;4711859;30;20328;-89
2022/07/02 07:09:04;;;;;;;;;;;;;;;20.99;33.00;99850.78;4709062;30;19992;-88
2022/07/02 07:11:31;;;;;;;;;;;;;;;21.11;32.70;99847.59;4733625;30;19937;-88
2022/07/02 07:13:58;;;;;;;;;;;;;;;21.20;32.56;99857.63;4727961;30;20033;-86
2022/07/02 07:16:26;;;;;;;;;;;;;;;21.04;31.81;99847.97;4706703;30;19941;-88
2022/07/02 07:21:24;;;;;;;;;;;;;;;20.86;32.49;99837.75;4405481;30;10000287;-85
2022/07/02 07:24:02;;;;;;;;;;;;;;;20.99;32.27;99837.88;4735037;30;19930;-88
2022/07/02 07:26:29;;;;;;;;;;;;;;;21.28;32.63;99838.88;4735059;30;19966;-85
2022/07/02 07:28:58;;;;;;;;;;;;;;;21.25;31.78;99834.78;4740017;30;19935;-88
2022/07/02 07:31:25;;;;;;;;;;;;;;;21.09;32.16;99836.94;4741517;30;19930;-89
2022/07/02 07:33:55;;;;;;;;;;;;;;;21.27;32.54;99829.00;4745468;30;19962;-89
2022/07/02 07:36:22;;;;;;;;;;;;;;;21.65;32.10;99835.38;4742826;30;19930;-86
2022/07/02 07:38:50;;;;;;;;;;;;;;;21.52;31.28;99827.84;4731574;30;19941;-88
2022/07/02 07:41:18;;;;;;;;;;;;;;;21.27;31.49;99829.00;4717520;30;19937;-89
2022/07/02 07:43:45;;;;;;;;;;;;;;;21.33;31.95;99827.81;4725047;30;19931;-89
2022/07/02 07:46:12;;;;;;;;;;;;;;;21.42;31.08;99834.31;4725222;30;19937;-88
2022/07/02 07:48:39;;;;;;;;;;;;;;;21.29;31.42;99832.25;4731811;30;19938;-91
2022/07/02 07:51:12;;;;;;;;;;;;;;;21.32;31.15;99826.19;4722373;30;19935;-92
2022/07/02 07:53:39;;;;;;;;;;;;;;;21.56;31.60;99826.97;4723924;30;19988;-89
2022/07/02 07:56:07;;;;;;;;;;;;;;;21.89;30.76;99829.75;4731260;30;20020;-88
2022/07/02 07:58:35;;;;;;;;;;;;;;;21.89;29.89;99829.75;4729928;30;19930;-86
2022/07/02 08:01:01;;;;;;;;;;;;;;;21.81;29.90;99834.00;4741347;30;19934;-87
2022/07/02 08:03:29;;;;;;;;;;;;;;;22.03;29.91;99827.88;4726948;30;20311;-89
2022/07/02 08:05:58;;;;;;;;;;;;;;;22.22;30.02;99822.34;4729459;30;19962;-90
2022/07/02 08:08:28;;;;;;;;;;;;;;;22.56;29.54;99825.84;4686942;30;19930;-89
2022/07/02 08:10:55;;;;;;;;;;;;;;;22.68;29.21;99826.97;4721037;30;19984;-89
2022/07/02 08:13:22;;;;;;;;;;;;;;;22.47;28.97;99826.56;4714525;30;19930;-88
2022/07/02 08:15:50;;;;;;;;;;;;;;;22.45;28.92;99826.06;4704934;30;19930;-91
2022/07/02 08:18:17;;;;;;;;;;;;;;;22.47;28.78;99818.31;4719236;30;19931;-89
2022/07/02 08:20:44;;;;;;;;;;;;;;;23.04;29.03;99820.81;4726940;30;19931;-89
2022/07/02 08:23:14;;;;;;;;;;;;;;;23.18;27.94;99811.72;4727050;30;19946;-91
2022/07/02 08:25:44;;;;;;;;;;;;;;;23.35;28.60;99803.63;4720135;30;20045;-89
2022/07/02 08:28:24;;;;;;;;;;;;;;;23.64;27.81;99810.66;4718929;30;19941;-94
2022/07/02 08:30:59;;;;;;;;;;;;;;;23.42;27.02;99808.69;4739057;30;20002;-93
2022/07/02 08:33:36;;;;;;;;;;;;;;;23.33;27.54;99803.09;4700532;30;20282;-94
2022/07/02 08:36:13;;;;;;;;;;;;;;;23.77;28.07;99799.59;4709252;30;20021;-92
2022/07/02 08:39:08;;;;;;;;;;;;;;;24.22;27.33;99793.25;4730828;30;20326;-93
2022/07/02 08:44:38;;;;;;;;;;;;;;;24.34;25.63;99800.94;5045292;24;20251;-92
2022/07/02 08:47:15;;;;;;;;;;;;;;;24.34;26.02;99792.66;4685917;30;19977;-88
2022/07/02 08:49:46;;;;;;;;;;;;;;;24.93;25.89;99784.94;4685533;30;19938;-89
2022/07/02 08:52:15;;;;;;;;;;;;;;;25.16;24.53;99793.09;4734024;30;19931;-89
2022/07/02 08:54:42;;;;;;;;;;;;;;;25.34;23.88;99794.75;4734604;30;19931;-88
2022/07/02 08:57:11;;;;;;;;;;;;;;;25.26;23.62;99785.34;4718570;30;19953;-89
2022/07/02 08:59:39;;;;;;;;;;;;;;;25.38;24.35;99789.41;4724854;30;19934;-86
2022/07/02 09:02:06;;;;;;;;;;;;;;;25.54;23.70;99781.44;4716099;30;19931;-87
2022/07/02 09:04:34;;;;;;;;;;;;;;;25.81;23.38;99778.34;4700931;30;19931;-88
2022/07/02 09:07:02;;;;;;;;;;;;;;;26.38;23.26;99772.53;4686904;30;20029;-89
2022/07/02 09:09:29;;;;;;;;;;;;;;;26.77;22.98;99769.78;4716665;30;20449;-89
2022/07/02 09:11:56;;;;;;;;;;;;;;;27.09;22.96;99775.75;4716457;30;19931;-88
2022/07/02 09:14:24;;;;;;;;;;;;;;;27.62;22.38;99768.66;4701392;30;20294;-88
2022/07/02 09:16:51;;;;;;;;;;;;;;;27.90;21.75;99763.38;4716223;30;19931;-88
2022/07/02 09:19:18;;;;;;;;;;;;;;;27.82;21.48;99758.72;4715615;30;20033;-88
2022/07/02 09:21:49;;;;;;;;;;;;;;;27.93;21.74;99756.31;4700937;30;19931;-89
2022/07/02 09:24:29;;;;;;;;;;;;;;;27.70;21.66;99759.47;4716289;30;19938;-88
2022/07/02 09:27:03;;;;;;;;;;;;;;;27.72;21.54;99750.81;4686005;30;19931;-87
2022/07/02 09:29:44;;;;;;;;;;;;;;;27.88;21.53;99751.81;4687206;30;19941;-88
2022/07/02 09:32:11;;;;;;;;;;;;;;;28.36;21.44;99738.34;4715109;30;19936;-88
2022/07/02 09:34:43;;;;;;;;;;;;;;;28.44;21.12;99732.75;4700067;30;19960;-88
2022/07/02 09:37:14;;;;;;;;;;;;;;;28.56;20.80;99722.78;4686595;30;19930;-89
2022/07/02 09:39:44;;;;;;;;;;;;;;;28.56;20.93;99731.91;4716154;30;19977;-88
2022/07/02 09:42:11;;;;;;;;;;;;;;;28.70;19.83;99729.59;4701111;30;19931;-88
2022/07/02 09:51:02;;;;;;;;;;;;;;;29.01;19.27;99721.81;4780583;24;19996;-88
2022/07/02 09:53:29;;;;;;;;;;;;;;;28.84;19.57;99717.31;4734322;30;19970;-87
2022/07/02 09:55:56;;;;;;;;;;;;;;;29.30;19.49;99712.38;4736462;30;19930;-89
2022/07/02 09:58:24;;;;;;;;;;;;;;;29.55;19.05;99708.31;4735496;30;19935;-88
2022/07/02 10:00:52;;;;;;;;;;;;;;;29.91;19.32;99703.75;4736847;30;19934;-88
2022/07/02 10:03:19;;;;;;;;;;;;;;;30.41;18.71;99698.63;4740140;30;19934;-88
2022/07/02 10:05:52;;;;;;;;;;;;;;;30.27;18.48;99703.88;4735183;30;19930;-88
2022/07/02 10:08:19;;;;;;;;;;;;;;;30.50;18.48;99696.47;4748352;30;19930;-89
2022/07/02 10:10:48;;;;;;;;;;;;;;;30.77;18.05;99682.78;4746308;30;19930;-88
2022/07/02 10:13:16;;;;;;;;;;;;;;;30.81;18.17;99689.22;4718672;30;19938;-86
2022/07/02 10:15:55;;;;;;;;;;;;;;;30.85;17.97;99688.16;4746466;30;19998;-87
2022/07/02 10:18:23;;;;;;;;;;;;;;;30.95;17.71;99677.63;4749267;30;19931;-88
2022/07/02 10:20:51;;;;;;;;;;;;;;;30.82;17.84;99682.53;4746319;30;19937;-88
2022/07/02 10:23:23;;;;;;;;;;;;;;;30.70;17.74;99671.47;4735543;30;19936;-87
2022/07/02 10:25:51;;;;;;;;;;;;;;;30.74;17.64;99672.34;4735429;30;20371;-88
2022/07/02 10:28:18;;;;;;;;;;;;;;;31.08;17.12;99668.75;4735320;30;19931;-88
2022/07/02 10:30:45;;;;;;;;;;;;;;;31.12;17.37;99670.78;4735187;30;20326;-89
2022/07/02 10:33:18;;;;;;;;;;;;;;;31.15;17.15;99676.47;4737374;30;19956;-88
2022/07/02 10:35:45;;;;;;;;;;;;;;;31.53;16.18;99664.50;4736356;30;20395;-88
2022/07/02 10:38:12;;;;;;;;;;;;;;;31.95;16.20;99658.09;4709626;30;19937;-88
2022/07/02 10:40:48;;;;;;;;;;;;;;;32.34;16.11;99662.69;4739332;30;19941;-87
2022/07/02 10:43:18;;;;;;;;;;;;;;;32.38;15.64;99646.78;4702921;30;20037;-88
2022/07/02 10:45:46;;;;;;;;;;;;;;;32.37;16.31;99659.94;4718014;30;20021;-88
2022/07/02 10:48:13;;;;;;;;;;;;;;;32.46;15.89;99644.91;4717588;30;19955;-89
2022/07/02 10:50:44;;;;;;;;;;;;;;;32.62;15.80;99640.00;4718828;30;20006;-89
2022/07/02 10:53:18;;;;;;;;;;;;;;;32.06;15.86;99643.50;4717461;30;19931;-89
2022/07/02 10:55:57;;;;;;;;;;;;;;;32.39;16.09;99637.25;4700369;30;19935;-89
2022/07/02 11:04:54;;;;;;;;;;;;;;;33.29;15.96;99642.03;4742244;30;19931;-90
2022/07/02 11:07:21;;;;;;;;;;;;;;;33.60;16.04;99640.81;4755627;30;19930;-90
2022/07/02 11:09:48;;;;;;;;;;;;;;;34.14;15.61;99646.91;4758201;30;19930;-93
2022/07/02 11:12:29;;;;;;;;;;;;;;;34.41;15.12;99644.72;4746862;30;20303;-91
2022/07/02 11:15:17;;;;;;;;;;;;;;;33.71;14.77;99631.72;4740109;30;19930;-89
2022/07/02 11:17:51;;;;;;;;;;;;;;;33.65;15.00;99632.06;4752888;30;20365;-88
2022/07/02 11:20:23;;;;;;;;;;;;;;;33.10;15.09;99625.47;4734669;30;19952;-90
2022/07/02 11:26:43;;;;;;;;;;;;;;;34.70;14.94;99608.47;5088766;24;20398;-89
2022/07/02 11:29:11;;;;;;;;;;;;;;;34.87;14.62;99618.97;4745375;30;19973;-88
2022/07/02 11:31:39;;;;;;;;;;;;;;;35.32;14.59;99615.91;4724125;30;20033;-90
2022/07/02 11:34:07;;;;;;;;;;;;;;;35.46;14.55;99615.16;4719339;30;19930;-90
2022/07/02 11:36:37;;;;;;;;;;;;;;;34.61;14.05;99608.81;4719375;30;19930;-90
2022/07/02 11:39:18;;;;;;;;;;;;;;;34.47;14.64;99598.31;4718740;30;19930;-93
2022/07/02 11:42:19;;;;;;;;;;;;;;;34.57;14.93;99605.16;4744690;30;19933;-89
2022/07/02 11:45:14;;;;;;;;;;;;;;;35.10;14.47;99609.47;4715083;30;20415;-90
2022/07/02 11:47:52;;;;;;;;;;;;;;;35.25;14.12;99597.06;4674523;30;19931;-92
2022/07/02 11:50:29;;;;;;;;;;;;;;;34.78;14.42;99598.88;4715087;30;19934;-92
2022/07/02 11:52:56;;;;;;;;;;;;;;;35.23;14.50;99602.28;4743573;24;19931;-88
2022/07/02 11:55:30;;;;;;;;;;;;;;;35.57;14.21;99599.91;4691470;30;19960;-87
2022/07/02 11:57:59;;;;;;;;;;;;;;;35.62;14.08;99600.75;4681750;30;19941;-88
2022/07/02 12:01:55;;;;;;;;;;;;;;;36.75;14.17;99587.00;4646761;30;19942;-89
2022/07/02 12:09:29;;;;;;;;;;;;;;;36.69;13.71;99588.59;4643648;30;20428;-89
2022/07/02 12:13:23;;;;;;;;;;;;;;;36.46;13.44;99592.66;4608172;31;19944;-93
2022/07/02 12:21:55;;;;;;;;;;;;;;;35.76;14.42;99592.34;4645010;24;20069;-93
2022/07/02 12:24:49;;;;;;;;;;;;;;;35.91;14.47;99588.34;4737268;25;19938;-92
2022/07/02 12:27:25;;;;;;;;;;;;;;;36.50;14.15;99590.66;4708880;30;19958;-96
2022/07/02 12:30:10;;;;;;;;;;;;;;;36.52;13.93;99579.00;4722383;30;20153;-94
2022/07/02 12:36:41;;;;;;;;;;;;;;;36.09;14.10;99577.09;4616355;30;19943;-96
2022/07/02 12:39:47;;;;;;;;;;;;;;;36.90;14.39;99574.47;4631883;31;19932;-96
2022/07/02 12:43:09;;;;;;;;;;;;;;;37.18;13.96;99567.09;3220950;24;19933;-96
2022/07/02 12:45:49;;;;;;;;;;;;;;;36.49;14.06;99563.75;4763042;30;20025;-95
2022/07/02 12:48:19;;;;;;;;;;;;;;;35.75;14.33;99566.28;4715546;30;19930;-96
2022/07/02 12:51:08;;;;;;;;;;;;;;;36.24;14.04;99567.44;4740078;30;19952;-96
2022/07/02 12:53:54;;;;;;;;;;;;;;;35.79;14.28;99572.69;4741076;30;19937;-94
2022/07/02 12:56:58;;;;;;;;;;;;;;;36.56;14.25;99546.88;4708605;30;19923;-95
2022/07/02 12:59:56;;;;;;;;;;;;;;;37.74;13.64;99559.47;4671759;30;19939;-95
2022/07/02 13:02:33;;;;;;;;;;;;;;;38.02;13.25;99566.06;4704384;30;19934;-95
2022/07/02 13:05:28;;;;;;;;;;;;;;;37.22;13.80;99565.88;4671541;30;19962;-95
2022/07/02 13:08:20;;;;;;;;;;;;;;;37.37;13.28;99557.31;4677832;30;20002;-95
2022/07/02 13:11:14;;;;;;;;;;;;;;;37.08;13.54;99555.50;4661393;30;19930;-96
2022/07/02 13:14:02;;;;;;;;;;;;;;;37.68;13.23;99556.31;4651323;30;20001;-96
2022/07/02 13:16:35;;;;;;;;;;;;;;;37.95;12.89;99556.44;4634009;30;19931;-93
2022/07/02 13:19:04;;;;;;;;;;;;;;;37.65;13.34;99556.31;4647105;30;19936;-94
2022/07/02 13:21:49;;;;;;;;;;;;;;;38.54;13.35;99554.66;4676145;30;19998;-96
2022/07/02 13:24:47;;;;;;;;;;;;;;;38.81;12.64;99549.06;4662689;30;20018;-96
2022/07/02 13:27:43;;;;;;;;;;;;;;;39.20;12.59;99554.19;4668684;30;19931;-95
2022/07/02 13:34:42;;;;;;;;;;;;;;;39.87;12.18;99540.22;4637022;31;19941;-96
2022/07/02 13:37:26;;;;;;;;;;;;;;;39.45;12.37;99530.44;4632066;31;20022;-96
2022/07/02 13:40:05;;;;;;;;;;;;;;;38.91;12.77;99530.44;4619426;31;20391;-96
2022/07/02 13:42:43;;;;;;;;;;;;;;;38.97;12.76;99525.91;4566436;31;19966;-96
2022/07/02 13:45:33;;;;;;;;;;;;;;;38.81;12.83;99513.19;4515499;31;19935;-94
2022/07/02 13:48:02;;;;;;;;;;;;;;;39.38;12.61;99513.63;4537792;31;19941;-96
2022/07/02 13:50:47;;;;;;;;;;;;;;;39.75;12.35;99517.41;4542079;31;19974;-96
2022/07/02 13:54:03;;;;;;;;;;;;;;;40.50;11.74;99516.81;4558226;31;19938;-95
2022/07/02 13:56:36;;;;;;;;;;;;;;;40.44;12.00;99510.09;4558132;31;19939;-93
2022/07/02 13:59:05;;;;;;;;;;;;;;;39.95;11.98;99504.16;4553722;31;19941;-95
2022/07/02 14:01:35;;;;;;;;;;;;;;;39.79;12.26;99502.03;4541274;31;19934;-96
2022/07/02 14:04:31;;;;;;;;;;;;;;;40.07;11.62;99497.88;4569283;31;19934;-95